Time;durP1;ratioP1;P1;durP2;ratioP2;P2;SDS_P1;SDS_P2;PMS_P1;PMS_P2;Temp;Humidity;BMP_temperature;BMP_pressure;BME280_temperature;BME280_humidity;BME280_pressure;Samples;Min_cycle;Max_cycle;Signal;HPM_P1;HPM_P2
2022/10/14 00:01:46;;;;;;;;;;;12.00;99.90;;;;;;4988495;28;19925;-72
2022/10/14 00:04:12;;;;;;;;;;;12.00;99.90;;;;;;4988726;28;19936;-71
2022/10/14 00:06:37;;;;;;;;;;;12.00;99.90;;;;;;4989653;28;20311;-71
2022/10/14 00:09:04;;;;;;;;;;;12.00;99.90;;;;;;4988629;28;20021;-71
2022/10/14 00:11:31;;;;;;;;;;;12.00;99.90;;;;;;4988491;28;19925;-72
2022/10/14 00:13:59;;;;;;;;;;;12.00;99.90;;;;;;4989618;28;19932;-72
2022/10/14 00:16:26;;;;;;;;;;;12.00;99.90;;;;;;4989843;28;19933;-71
2022/10/14 00:18:51;;;;;;;;;;;12.00;99.90;;;;;;4989541;28;19952;-72
2022/10/14 00:21:17;;;;;;;;;;;12.00;99.90;;;;;;4988763;28;19926;-72
2022/10/14 00:23:43;;;;;;;;;;;12.10;99.90;;;;;;4989281;28;20287;-72
2022/10/14 00:26:16;;;;;;;;;;;12.00;99.90;;;;;;4989031;28;20375;-72
2022/10/14 00:28:42;;;;;;;;;;;12.00;99.90;;;;;;4989022;28;19929;-72
2022/10/14 00:31:08;;;;;;;;;;;12.00;99.90;;;;;;4988471;28;20488;-72
2022/10/14 00:33:33;;;;;;;;;;;11.90;99.90;;;;;;4987839;28;19922;-73
2022/10/14 00:36:00;;;;;;;;;;;11.90;99.90;;;;;;4987691;28;19930;-72
2022/10/14 00:38:26;;;;;;;;;;;11.90;99.90;;;;;;4989468;28;19925;-72
2022/10/14 00:40:52;;;;;;;;;;;11.80;99.90;;;;;;4990515;28;19936;-72
2022/10/14 00:43:18;;;;;;;;;;;11.80;99.90;;;;;;4991870;28;19926;-72
2022/10/14 00:45:44;;;;;;;;;;;11.70;99.90;;;;;;4992168;28;19926;-71
2022/10/14 00:48:10;;;;;;;;;;;11.70;99.90;;;;;;4992624;28;19928;-72
2022/10/14 00:50:36;;;;;;;;;;;11.70;99.90;;;;;;4992576;28;20337;-72
2022/10/14 00:53:02;;;;;;;;;;;11.70;99.90;;;;;;4992415;28;19933;-72
2022/10/14 00:55:28;;;;;;;;;;;11.70;99.90;;;;;;4991825;28;19925;-72
2022/10/14 00:57:54;;;;;;;;;;;11.70;99.90;;;;;;4992181;28;19925;-72
2022/10/14 01:00:20;;;;;;;;;;;11.70;99.90;;;;;;4992430;28;19926;-73
2022/10/14 01:02:46;;;;;;;;;;;11.70;99.90;;;;;;4992008;28;19926;-71
2022/10/14 01:05:13;;;;;;;;;;;11.70;99.90;;;;;;4992357;28;20287;-72
2022/10/14 01:07:51;;;;;;;;;;;11.60;99.90;;;;;;4959039;28;19933;-71
2022/10/14 01:10:33;;;;;;;;;;;11.60;99.90;;;;;;4992787;28;19926;-71
2022/10/14 01:13:09;;;;;;;;;;;11.60;99.90;;;;;;4996167;28;20024;-71
2022/10/14 01:15:35;;;;;;;;;;;11.60;99.90;;;;;;4993598;28;19940;-72
2022/10/14 01:18:05;;;;;;;;;;;11.60;99.90;;;;;;4991901;28;19925;-71
2022/10/14 01:20:43;;;;;;;;;;;11.50;99.90;;;;;;4992097;28;20018;-71
2022/10/14 01:23:20;;;;;;;;;;;11.50;99.90;;;;;;4991267;28;19925;-72
2022/10/14 01:26:00;;;;;;;;;;;11.50;99.90;;;;;;4991831;28;20016;-72
2022/10/14 01:28:32;;;;;;;;;;;11.40;99.90;;;;;;4991994;28;19926;-71
2022/10/14 01:31:03;;;;;;;;;;;11.40;99.90;;;;;;4990399;28;19942;-72
2022/10/14 01:33:36;;;;;;;;;;;11.40;99.90;;;;;;4991859;28;19999;-72
2022/10/14 01:36:02;;;;;;;;;;;11.30;99.90;;;;;;4990194;28;19937;-73
2022/10/14 01:38:38;;;;;;;;;;;11.30;99.90;;;;;;4991532;28;19926;-73
2022/10/14 01:41:03;;;;;;;;;;;11.30;99.90;;;;;;4973839;28;19922;-72
2022/10/14 01:43:30;;;;;;;;;;;11.20;99.90;;;;;;4991706;28;19926;-73
2022/10/14 01:45:57;;;;;;;;;;;11.20;99.90;;;;;;4991271;28;19932;-73
2022/10/14 01:48:26;;;;;;;;;;;11.20;99.90;;;;;;4991552;28;19926;-72
2022/10/14 01:50:53;;;;;;;;;;;11.20;99.90;;;;;;4990369;28;19930;-72
2022/10/14 01:53:26;;;;;;;;;;;11.10;99.90;;;;;;4990613;28;20295;-72
2022/10/14 01:55:54;;;;;;;;;;;11.10;99.90;;;;;;4989477;28;19974;-72
2022/10/14 01:58:20;;;;;;;;;;;11.10;99.90;;;;;;4973962;28;19980;-73
2022/10/14 02:00:46;;;;;;;;;;;11.10;99.90;;;;;;4990498;28;20282;-73
2022/10/14 02:03:12;;;;;;;;;;;11.00;99.90;;;;;;4991163;28;19929;-72
2022/10/14 02:05:42;;;;;;;;;;;11.00;99.90;;;;;;4991518;28;20029;-72
2022/10/14 02:08:13;;;;;;;;;;;11.00;99.90;;;;;;4973863;28;19941;-72
2022/10/14 02:10:50;;;;;;;;;;;11.00;99.90;;;;;;4991537;28;20383;-72
2022/10/14 02:13:19;;;;;;;;;;;11.00;99.90;;;;;;4989698;28;19926;-72
2022/10/14 02:16:20;;;;;;;;;;;10.90;99.90;;;;;;4974309;28;19926;-72
2022/10/14 02:18:52;;;;;;;;;;;11.00;99.90;;;;;;5051000;28;20334;-72
2022/10/14 02:21:33;;;;;;;;;;;11.00;99.90;;;;;;5000672;28;19969;-73
2022/10/14 02:24:02;;;;;;;;;;;10.90;99.90;;;;;;4990951;28;19948;-72
2022/10/14 02:26:28;;;;;;;;;;;11.00;99.90;;;;;;4990966;28;20436;-72
2022/10/14 02:28:55;;;;;;;;;;;10.90;99.90;;;;;;4990820;28;19979;-70
2022/10/14 02:31:21;;;;;;;;;;;10.90;99.90;;;;;;4990996;28;19933;-72
2022/10/14 02:33:52;;;;;;;;;;;10.90;99.90;;;;;;4991517;28;19973;-72
2022/10/14 02:36:23;;;;;;;;;;;10.90;99.90;;;;;;4995557;28;19926;-71
2022/10/14 02:38:49;;;;;;;;;;;10.80;99.90;;;;;;4991482;28;19979;-73
2022/10/14 02:41:16;;;;;;;;;;;10.90;99.90;;;;;;5022281;28;19972;-71
2022/10/14 02:43:42;;;;;;;;;;;10.80;99.90;;;;;;4989773;28;19956;-71
2022/10/14 02:46:08;;;;;;;;;;;10.90;99.90;;;;;;4989531;28;20310;-71
2022/10/14 02:48:34;;;;;;;;;;;10.90;99.90;;;;;;4989663;28;20017;-72
2022/10/14 02:50:59;;;;;;;;;;;10.80;99.90;;;;;;4990333;28;19933;-71
2022/10/14 02:53:25;;;;;;;;;;;10.80;99.90;;;;;;4989428;28;19926;-71
2022/10/14 02:55:50;;;;;;;;;;;10.80;99.90;;;;;;4990683;28;20268;-73
2022/10/14 02:58:16;;;;;;;;;;;10.80;99.90;;;;;;4989402;28;20259;-73
2022/10/14 03:00:41;;;;;;;;;;;10.80;99.90;;;;;;4973451;28;19969;-73
2022/10/14 03:03:07;;;;;;;;;;;10.80;99.90;;;;;;4988765;28;19925;-71
2022/10/14 03:05:33;;;;;;;;;;;10.80;99.90;;;;;;4990573;28;19933;-71
2022/10/14 03:07:58;;;;;;;;;;;10.80;99.90;;;;;;4973129;28;19921;-72
2022/10/14 03:10:24;;;;;;;;;;;10.80;99.90;;;;;;4989567;28;19926;-70
2022/10/14 03:12:49;;;;;;;;;;;10.80;99.90;;;;;;4990235;28;19926;-72
2022/10/14 03:15:15;;;;;;;;;;;10.80;99.90;;;;;;4989299;28;20377;-73
2022/10/14 03:17:41;;;;;;;;;;;10.80;99.90;;;;;;4990333;28;19937;-72
2022/10/14 03:20:07;;;;;;;;;;;10.80;99.90;;;;;;4990011;28;19974;-71
2022/10/14 03:22:32;;;;;;;;;;;10.80;99.90;;;;;;4989354;28;19925;-72
2022/10/14 03:24:58;;;;;;;;;;;10.80;99.90;;;;;;4972538;28;20029;-72
2022/10/14 03:27:24;;;;;;;;;;;10.80;99.90;;;;;;4989777;28;19926;-72
2022/10/14 03:29:49;;;;;;;;;;;10.80;99.90;;;;;;4989085;28;20371;-72
2022/10/14 03:32:15;;;;;;;;;;;10.70;99.90;;;;;;4989821;28;19974;-71
2022/10/14 03:34:40;;;;;;;;;;;10.70;99.90;;;;;;4989231;28;19926;-71
2022/10/14 03:37:06;;;;;;;;;;;10.70;99.90;;;;;;4989770;28;19926;-69
2022/10/14 03:39:32;;;;;;;;;;;10.70;99.90;;;;;;4990259;28;19930;-71
2022/10/14 03:41:57;;;;;;;;;;;10.70;99.90;;;;;;4990049;28;20251;-71
2022/10/14 03:44:23;;;;;;;;;;;10.70;99.90;;;;;;4989535;28;19977;-72
2022/10/14 03:46:48;;;;;;;;;;;10.60;99.90;;;;;;4989985;28;20067;-71
2022/10/14 03:49:14;;;;;;;;;;;10.70;99.90;;;;;;4988481;28;19933;-71
2022/10/14 03:51:40;;;;;;;;;;;10.70;99.90;;;;;;4989570;28;19926;-71
2022/10/14 03:54:05;;;;;;;;;;;10.60;99.90;;;;;;4988745;28;20351;-71
2022/10/14 03:56:31;;;;;;;;;;;10.70;99.90;;;;;;4989879;28;20284;-71
2022/10/14 03:58:56;;;;;;;;;;;10.60;99.90;;;;;;4991613;28;19929;-71
2022/10/14 04:01:22;;;;;;;;;;;10.60;99.90;;;;;;4991508;28;19926;-73
2022/10/14 04:03:49;;;;;;;;;;;10.60;99.90;;;;;;4990699;28;19925;-72
2022/10/14 04:06:15;;;;;;;;;;;10.60;99.90;;;;;;4989724;28;19960;-72
2022/10/14 04:08:41;;;;;;;;;;;10.60;99.90;;;;;;4988253;28;20119;-72
2022/10/14 04:11:07;;;;;;;;;;;10.60;99.90;;;;;;4988056;28;19941;-71
2022/10/14 04:13:33;;;;;;;;;;;10.60;99.90;;;;;;4989659;28;19926;-72
2022/10/14 04:16:04;;;;;;;;;;;10.60;99.90;;;;;;4989924;28;19933;-72
2022/10/14 04:18:30;;;;;;;;;;;10.50;99.90;;;;;;4992618;28;19933;-71
2022/10/14 04:20:58;;;;;;;;;;;10.50;99.90;;;;;;4992773;28;19922;-72
2022/10/14 04:23:24;;;;;;;;;;;10.50;99.90;;;;;;4992523;28;20318;-71
2022/10/14 04:25:49;;;;;;;;;;;10.50;99.90;;;;;;4992562;28;19971;-71
2022/10/14 04:28:15;;;;;;;;;;;10.60;99.90;;;;;;4992528;28;19942;-72
2022/10/14 04:30:41;;;;;;;;;;;10.60;99.90;;;;;;4992900;28;19925;-72
2022/10/14 04:33:06;;;;;;;;;;;10.60;99.90;;;;;;4992499;28;19926;-71
2022/10/14 04:35:32;;;;;;;;;;;10.60;99.90;;;;;;4992751;28;19937;-71
2022/10/14 04:37:58;;;;;;;;;;;10.60;99.90;;;;;;4991582;28;19932;-71
2022/10/14 04:40:25;;;;;;;;;;;10.70;99.90;;;;;;4991299;28;19926;-72
2022/10/14 04:42:55;;;;;;;;;;;10.70;99.90;;;;;;4991765;28;19926;-72
2022/10/14 04:45:20;;;;;;;;;;;10.70;99.90;;;;;;4991541;28;20014;-72
2022/10/14 04:47:46;;;;;;;;;;;10.70;99.90;;;;;;4991582;28;20344;-71
2022/10/14 04:50:11;;;;;;;;;;;10.70;99.90;;;;;;4992373;28;19925;-71
2022/10/14 04:52:37;;;;;;;;;;;10.70;99.90;;;;;;4991228;28;19926;-72
2022/10/14 04:55:03;;;;;;;;;;;10.70;99.90;;;;;;4992072;28;19926;-71
2022/10/14 04:57:28;;;;;;;;;;;10.70;99.90;;;;;;4992176;28;19922;-71
2022/10/14 04:59:54;;;;;;;;;;;10.80;99.90;;;;;;4992546;28;19948;-71
2022/10/14 05:02:19;;;;;;;;;;;10.70;99.90;;;;;;4990839;28;19925;-71
2022/10/14 05:04:45;;;;;;;;;;;10.70;99.90;;;;;;4992171;28;20276;-72
2022/10/14 05:07:11;;;;;;;;;;;10.70;99.90;;;;;;4992298;28;19934;-71
2022/10/14 05:09:36;;;;;;;;;;;10.80;99.90;;;;;;4992162;28;19932;-70
2022/10/14 05:12:03;;;;;;;;;;;10.70;99.90;;;;;;4992502;28;20367;-71
2022/10/14 05:14:28;;;;;;;;;;;10.70;99.90;;;;;;4991825;28;19926;-70
2022/10/14 05:16:54;;;;;;;;;;;10.70;99.90;;;;;;4974873;28;20099;-71
2022/10/14 05:19:19;;;;;;;;;;;10.60;99.90;;;;;;4991613;28;19930;-71
2022/10/14 05:21:45;;;;;;;;;;;10.60;99.90;;;;;;4993622;28;19987;-72
2022/10/14 05:24:11;;;;;;;;;;;10.60;99.90;;;;;;4994376;28;19930;-71
2022/10/14 05:26:36;;;;;;;;;;;10.60;99.90;;;;;;4991204;28;20263;-71
2022/10/14 05:29:02;;;;;;;;;;;10.60;99.90;;;;;;4992007;28;19949;-71
2022/10/14 05:31:28;;;;;;;;;;;10.50;99.90;;;;;;4991613;28;19933;-71
2022/10/14 05:33:53;;;;;;;;;;;10.60;99.90;;;;;;4991959;28;19926;-71
2022/10/14 05:36:19;;;;;;;;;;;10.50;99.90;;;;;;4974479;28;19948;-72
2022/10/14 05:38:44;;;;;;;;;;;10.60;99.90;;;;;;5023444;28;19932;-72
2022/10/14 05:41:10;;;;;;;;;;;10.60;99.90;;;;;;4990846;28;20020;-71
2022/10/14 05:43:36;;;;;;;;;;;10.60;99.90;;;;;;4990335;28;19925;-71
2022/10/14 05:46:01;;;;;;;;;;;10.50;99.90;;;;;;4991665;28;19980;-71
2022/10/14 05:48:27;;;;;;;;;;;10.50;99.90;;;;;;4991521;28;19941;-71
2022/10/14 05:50:52;;;;;;;;;;;10.60;99.90;;;;;;4991576;28;20276;-72
2022/10/14 05:53:18;;;;;;;;;;;10.60;99.90;;;;;;4990084;28;19975;-72
2022/10/14 05:55:44;;;;;;;;;;;10.60;99.90;;;;;;4990223;28;19975;-72
2022/10/14 05:58:10;;;;;;;;;;;10.50;99.90;;;;;;4991393;28;19926;-72
2022/10/14 06:00:35;;;;;;;;;;;10.60;99.90;;;;;;4991196;28;20382;-72
2022/10/14 06:03:01;;;;;;;;;;;10.60;99.90;;;;;;4991334;28;20010;-72
2022/10/14 06:05:26;;;;;;;;;;;10.60;99.90;;;;;;4973767;28;20127;-70
2022/10/14 06:07:52;;;;;;;;;;;10.60;99.90;;;;;;4990090;28;20047;-70
2022/10/14 06:10:18;;;;;;;;;;;10.60;99.90;;;;;;4991300;28;20165;-70
2022/10/14 06:12:43;;;;;;;;;;;10.60;99.90;;;;;;4989756;28;19926;-70
2022/10/14 06:15:09;;;;;;;;;;;10.60;99.90;;;;;;4991454;28;19932;-70
2022/10/14 06:17:35;;;;;;;;;;;10.50;99.90;;;;;;4989769;28;19925;-71
2022/10/14 06:20:00;;;;;;;;;;;10.60;99.90;;;;;;4991222;28;19932;-71
2022/10/14 06:22:26;;;;;;;;;;;10.60;99.90;;;;;;4990839;28;20003;-72
2022/10/14 06:24:52;;;;;;;;;;;10.60;99.90;;;;;;4990154;28;19939;-71
2022/10/14 06:27:18;;;;;;;;;;;10.60;99.90;;;;;;4991016;28;20012;-71
2022/10/14 06:29:43;;;;;;;;;;;10.70;99.90;;;;;;4990719;28;19936;-71
2022/10/14 06:32:09;;;;;;;;;;;10.60;99.90;;;;;;4990987;28;20383;-72
2022/10/14 06:34:34;;;;;;;;;;;10.60;99.90;;;;;;4973378;28;19926;-71
2022/10/14 06:37:00;;;;;;;;;;;10.60;99.90;;;;;;4990026;28;19934;-71
2022/10/14 06:39:26;;;;;;;;;;;10.60;99.90;;;;;;4989112;28;20021;-71
2022/10/14 06:41:52;;;;;;;;;;;10.70;99.90;;;;;;4990830;28;20016;-71
2022/10/14 06:44:18;;;;;;;;;;;10.60;99.90;;;;;;4990320;28;19926;-71
2022/10/14 06:46:44;;;;;;;;;;;10.70;99.90;;;;;;4993485;28;19926;-72
2022/10/14 06:49:10;;;;;;;;;;;10.70;99.90;;;;;;4992034;28;19930;-73
2022/10/14 06:51:37;;;;;;;;;;;10.70;99.90;;;;;;4973239;28;19987;-72
2022/10/14 06:54:03;;;;;;;;;;;10.80;99.90;;;;;;4989471;28;19984;-73
2022/10/14 06:56:28;;;;;;;;;;;10.80;99.90;;;;;;4990514;28;20016;-71
2022/10/14 06:58:55;;;;;;;;;;;10.80;99.90;;;;;;4989721;28;19926;-71
2022/10/14 07:01:20;;;;;;;;;;;10.80;99.90;;;;;;4989441;28;20004;-72
2022/10/14 07:03:46;;;;;;;;;;;10.80;99.90;;;;;;4973254;28;19926;-71
2022/10/14 07:06:12;;;;;;;;;;;10.80;99.90;;;;;;4990608;28;19926;-73
2022/10/14 07:08:37;;;;;;;;;;;10.80;99.90;;;;;;4973181;28;19933;-71
2022/10/14 07:11:04;;;;;;;;;;;10.80;99.90;;;;;;4990610;28;19926;-72
2022/10/14 07:13:29;;;;;;;;;;;10.80;99.90;;;;;;4989967;28;19933;-70
2022/10/14 07:15:55;;;;;;;;;;;10.80;99.90;;;;;;4989052;28;19926;-70
2022/10/14 07:18:21;;;;;;;;;;;10.90;99.90;;;;;;4989294;28;20024;-72
2022/10/14 07:20:46;;;;;;;;;;;10.80;99.90;;;;;;5021723;28;19926;-71
2022/10/14 07:23:12;;;;;;;;;;;10.90;99.90;;;;;;4990415;28;20425;-71
2022/10/14 07:25:38;;;;;;;;;;;10.90;99.90;;;;;;4990271;28;20020;-71
2022/10/14 07:28:03;;;;;;;;;;;10.90;99.90;;;;;;4990330;28;19926;-71
2022/10/14 07:30:30;;;;;;;;;;;11.00;99.90;;;;;;4990463;28;20062;-72
2022/10/14 07:32:55;;;;;;;;;;;11.00;99.90;;;;;;5021656;28;19925;-71
2022/10/14 07:35:21;;;;;;;;;;;11.00;99.90;;;;;;4990359;28;19955;-72
2022/10/14 07:37:47;;;;;;;;;;;11.00;99.90;;;;;;4972825;28;19926;-71
2022/10/14 07:40:12;;;;;;;;;;;11.00;99.90;;;;;;4989580;28;19926;-72
2022/10/14 07:42:38;;;;;;;;;;;11.10;99.90;;;;;;4989802;28;19925;-72
2022/10/14 07:45:04;;;;;;;;;;;11.10;99.90;;;;;;4988679;28;20283;-73
2022/10/14 07:47:32;;;;;;;;;;;11.10;99.90;;;;;;4988784;28;20011;-73
2022/10/14 07:50:01;;;;;;;;;;;11.10;99.90;;;;;;4990017;28;19926;-72
2022/10/14 07:52:27;;;;;;;;;;;11.10;99.90;;;;;;4992351;28;20019;-72
2022/10/14 07:54:52;;;;;;;;;;;11.10;99.90;;;;;;4992853;28;19965;-71
2022/10/14 07:57:18;;;;;;;;;;;11.10;99.90;;;;;;4992537;28;19926;-72
2022/10/14 07:59:45;;;;;;;;;;;11.20;99.90;;;;;;4993218;28;19965;-72
2022/10/14 08:02:10;;;;;;;;;;;11.20;99.90;;;;;;4992132;28;19973;-72
2022/10/14 08:04:36;;;;;;;;;;;11.20;99.90;;;;;;4991887;28;19933;-72
2022/10/14 08:07:03;;;;;;;;;;;11.20;99.90;;;;;;4993202;28;19960;-74
2022/10/14 08:09:29;;;;;;;;;;;11.30;99.90;;;;;;4993821;28;19933;-74
2022/10/14 08:11:55;;;;;;;;;;;11.30;99.90;;;;;;4995632;28;19956;-74
2022/10/14 08:14:20;;;;;;;;;;;11.30;99.90;;;;;;4993429;28;19926;-73
2022/10/14 08:16:46;;;;;;;;;;;11.30;99.90;;;;;;4992396;28;19933;-74
2022/10/14 08:19:12;;;;;;;;;;;11.30;99.90;;;;;;4975664;28;19930;-75
2022/10/14 08:21:38;;;;;;;;;;;11.30;99.90;;;;;;4991610;28;19932;-76
2022/10/14 08:24:04;;;;;;;;;;;11.40;99.90;;;;;;5024396;28;20343;-74
2022/10/14 08:26:31;;;;;;;;;;;11.40;99.90;;;;;;5024485;28;19933;-76
2022/10/14 08:28:58;;;;;;;;;;;11.40;99.90;;;;;;4992396;28;19933;-73
2022/10/14 08:31:24;;;;;;;;;;;11.40;99.90;;;;;;4993020;28;19979;-76
2022/10/14 08:33:49;;;;;;;;;;;11.50;99.90;;;;;;4991251;28;19926;-74
2022/10/14 08:36:16;;;;;;;;;;;11.50;99.90;;;;;;4992812;28;19932;-75
2022/10/14 08:38:41;;;;;;;;;;;11.50;99.90;;;;;;4991432;28;20280;-72
2022/10/14 08:41:16;;;;;;;;;;;11.60;99.90;;;;;;5024299;28;19926;-75
2022/10/14 08:43:47;;;;;;;;;;;11.60;99.90;;;;;;4992824;28;20252;-76
2022/10/14 08:46:42;;;;;;;;;;;11.60;99.90;;;;;;4992167;28;20361;-73
2022/10/14 08:49:16;;;;;;;;;;;11.70;99.90;;;;;;4982955;28;19926;-74
2022/10/14 08:51:43;;;;;;;;;;;11.70;99.90;;;;;;4992425;28;19981;-79
2022/10/14 08:54:11;;;;;;;;;;;11.80;99.90;;;;;;4992288;28;20325;-76
2022/10/14 08:56:37;;;;;;;;;;;11.80;99.90;;;;;;4991015;28;19965;-75
2022/10/14 08:59:10;;;;;;;;;;;11.80;99.90;;;;;;4990725;28;20379;-75
2022/10/14 09:01:43;;;;;;;;;;;11.90;99.90;;;;;;4991233;28;19932;-73
2022/10/14 09:04:12;;;;;;;;;;;12.00;99.90;;;;;;4989748;28;19926;-74
2022/10/14 09:06:39;;;;;;;;;;;12.00;99.90;;;;;;5006530;28;19974;-74
2022/10/14 09:09:08;;;;;;;;;;;12.10;99.90;;;;;;4989175;28;19933;-75
2022/10/14 09:11:37;;;;;;;;;;;12.10;99.90;;;;;;4990996;28;19948;-75
2022/10/14 09:14:07;;;;;;;;;;;12.10;99.90;;;;;;4988873;28;19922;-75
2022/10/14 09:16:37;;;;;;;;;;;12.20;99.90;;;;;;5022445;28;19925;-74
2022/10/14 09:19:38;;;;;;;;;;;12.20;99.90;;;;;;4990691;28;19961;-73
2022/10/14 09:22:09;;;;;;;;;;;12.20;99.90;;;;;;5047047;28;19925;-76
2022/10/14 09:24:35;;;;;;;;;;;12.30;99.90;;;;;;5000378;28;19969;-74
2022/10/14 09:27:05;;;;;;;;;;;12.30;99.90;;;;;;5006628;28;20022;-74
2022/10/14 09:29:30;;;;;;;;;;;12.40;99.90;;;;;;4994306;28;19930;-75
2022/10/14 09:32:06;;;;;;;;;;;12.40;99.90;;;;;;4993647;28;20068;-73
2022/10/14 09:34:34;;;;;;;;;;;12.40;99.90;;;;;;4992753;28;19926;-74
2022/10/14 09:37:09;;;;;;;;;;;12.40;99.90;;;;;;4991678;28;19929;-74
2022/10/14 09:39:37;;;;;;;;;;;12.50;99.90;;;;;;4988198;28;19932;-73
2022/10/14 09:42:03;;;;;;;;;;;12.50;99.90;;;;;;5004823;28;19932;-78
2022/10/14 09:44:28;;;;;;;;;;;12.50;99.90;;;;;;4990431;28;19926;-76
2022/10/14 09:46:56;;;;;;;;;;;12.50;99.90;;;;;;4990443;28;19979;-71
2022/10/14 09:49:31;;;;;;;;;;;12.50;99.90;;;;;;4990668;28;19926;-70
2022/10/14 09:51:57;;;;;;;;;;;12.50;99.90;;;;;;4987687;28;20287;-69
2022/10/14 09:54:24;;;;;;;;;;;12.50;99.90;;;;;;4990490;28;19926;-69
2022/10/14 09:56:57;;;;;;;;;;;12.50;99.90;;;;;;4927888;28;1785370;-70
2022/10/14 09:59:23;;;;;;;;;;;12.50;99.90;;;;;;4991417;28;19926;-71
2022/10/14 10:01:50;;;;;;;;;;;12.50;99.90;;;;;;4991483;28;20013;-69
2022/10/14 10:04:33;;;;;;;;;;;12.60;99.90;;;;;;4989363;28;19974;-71
2022/10/14 10:07:00;;;;;;;;;;;12.60;99.90;;;;;;4986869;28;19932;-70
2022/10/14 10:09:25;;;;;;;;;;;12.60;99.90;;;;;;4986809;28;19933;-70
2022/10/14 10:11:52;;;;;;;;;;;12.70;99.90;;;;;;4990570;28;19925;-70
2022/10/14 10:14:23;;;;;;;;;;;12.70;99.90;;;;;;4986559;28;19967;-69
2022/10/14 10:16:49;;;;;;;;;;;12.70;99.90;;;;;;4990926;28;19930;-69
2022/10/14 10:19:30;;;;;;;;;;;12.70;99.90;;;;;;4986157;28;20310;-68
2022/10/14 10:22:13;;;;;;;;;;;12.80;99.90;;;;;;4989524;28;20370;-69
2022/10/14 10:24:38;;;;;;;;;;;12.80;99.90;;;;;;4991324;28;20272;-69
2022/10/14 10:27:17;;;;;;;;;;;12.80;99.90;;;;;;4988026;28;19932;-69
2022/10/14 10:29:43;;;;;;;;;;;12.90;99.90;;;;;;4989610;28;19941;-70
2022/10/14 10:32:28;;;;;;;;;;;12.90;99.90;;;;;;4971499;28;19933;-70
2022/10/14 10:35:29;;;;;;;;;;;12.90;99.90;;;;;;4990942;28;19940;-70
2022/10/14 10:38:01;;;;;;;;;;;13.00;99.90;;;;;;5050533;28;19924;-69
2022/10/14 10:40:50;;;;;;;;;;;13.00;99.90;;;;;;4996107;28;19926;-69
2022/10/14 10:43:25;;;;;;;;;;;13.10;99.90;;;;;;4986710;28;19977;-69
2022/10/14 10:45:51;;;;;;;;;;;13.10;99.90;;;;;;4990855;28;20116;-69
2022/10/14 10:48:22;;;;;;;;;;;13.10;99.90;;;;;;4990530;28;20028;-69
2022/10/14 10:50:56;;;;;;;;;;;13.10;99.90;;;;;;4988891;28;19926;-69
2022/10/14 10:53:43;;;;;;;;;;;13.10;99.90;;;;;;4988686;28;19929;-69
2022/10/14 10:56:12;;;;;;;;;;;13.20;99.90;;;;;;4989515;28;19922;-72
2022/10/14 10:58:56;;;;;;;;;;;13.20;99.90;;;;;;4990777;28;19933;-69
2022/10/14 11:01:23;;;;;;;;;;;13.20;99.90;;;;;;4991065;28;19930;-70
2022/10/14 11:03:54;;;;;;;;;;;13.20;99.90;;;;;;4989273;28;20333;-70
2022/10/14 11:12:13;;;;;;;;;;;13.30;99.90;;;;;;4985785;28;19971;-70
2022/10/14 11:14:51;;;;;;;;;;;13.30;99.90;;;;;;4989634;28;20016;-71
2022/10/14 11:17:25;;;;;;;;;;;13.30;99.90;;;;;;4988769;28;19926;-70
2022/10/14 11:20:00;;;;;;;;;;;13.30;99.90;;;;;;5018108;28;20252;-72
2022/10/14 11:22:31;;;;;;;;;;;13.30;99.90;;;;;;4990076;28;19926;-73
2022/10/14 11:25:15;;;;;;;;;;;13.30;99.90;;;;;;4988787;28;20318;-72
2022/10/14 11:27:47;;;;;;;;;;;13.20;99.90;;;;;;5021935;28;20391;-73
2022/10/14 11:30:15;;;;;;;;;;;13.20;99.90;;;;;;4990171;28;19926;-71
2022/10/14 11:32:52;;;;;;;;;;;13.20;99.90;;;;;;4990258;28;19925;-73
2022/10/14 11:35:18;;;;;;;;;;;13.30;99.90;;;;;;4989017;28;19948;-71
2022/10/14 11:37:54;;;;;;;;;;;13.30;99.90;;;;;;4990618;28;20359;-71
2022/10/14 11:40:27;;;;;;;;;;;13.30;99.90;;;;;;4988969;28;19926;-70
2022/10/14 11:43:06;;;;;;;;;;;13.30;99.90;;;;;;4990076;28;19933;-71
2022/10/14 11:45:35;;;;;;;;;;;13.30;99.90;;;;;;4972509;28;20290;-71
2022/10/14 11:48:19;;;;;;;;;;;13.30;99.90;;;;;;4990061;28;19948;-70
2022/10/14 11:50:46;;;;;;;;;;;13.30;99.90;;;;;;4990091;28;20440;-72
2022/10/14 11:53:18;;;;;;;;;;;13.30;99.90;;;;;;4989648;28;19979;-72
2022/10/14 11:55:58;;;;;;;;;;;13.30;99.90;;;;;;4988218;28;19926;-72
2022/10/14 11:58:25;;;;;;;;;;;13.30;99.90;;;;;;4989775;28;19922;-74
2022/10/14 12:00:53;;;;;;;;;;;13.30;99.90;;;;;;4989356;28;20418;-71
2022/10/14 12:03:25;;;;;;;;;;;13.30;99.90;;;;;;4988676;28;19991;-72
2022/10/14 12:06:00;;;;;;;;;;;13.40;99.90;;;;;;5021292;28;19948;-71
2022/10/14 12:08:45;;;;;;;;;;;13.40;99.90;;;;;;4988189;28;20367;-70
2022/10/14 12:11:23;;;;;;;;;;;13.40;99.90;;;;;;4989368;28;19930;-71
2022/10/14 12:13:51;;;;;;;;;;;13.50;99.90;;;;;;4988489;28;20264;-71
2022/10/14 12:16:18;;;;;;;;;;;13.50;99.90;;;;;;4988130;28;19971;-72
2022/10/14 12:18:45;;;;;;;;;;;13.50;99.90;;;;;;4988348;28;19925;-71
2022/10/14 13:18:32;;;;;;;;;;;13.40;99.90;;;;;;5093160;27;19921;-74
2022/10/14 13:20:57;;;;;;;;;;;13.50;99.90;;;;;;5104595;28;19928;-75
2022/10/14 13:23:29;;;;;;;;;;;13.50;99.90;;;;;;5096471;28;19924;-77
2022/10/14 13:26:14;;;;;;;;;;;13.50;99.90;;;;;;5106962;28;19924;-75
2022/10/14 13:28:55;;;;;;;;;;;13.50;99.90;;;;;;5107515;28;19981;-73
2022/10/14 13:31:44;;;;;;;;;;;13.50;99.90;;;;;;5076431;28;19924;-74
2022/10/14 13:34:25;;;;;;;;;;;13.50;99.90;;;;;;5062722;28;19928;-74
2022/10/14 13:36:57;;;;;;;;;;;13.50;99.90;;;;;;5082685;28;20044;-73
2022/10/14 13:39:23;;;;;;;;;;;13.40;99.90;;;;;;5107822;28;19981;-73
2022/10/14 13:41:49;;;;;;;;;;;13.50;99.90;;;;;;5094917;28;19924;-73
2022/10/14 13:44:16;;;;;;;;;;;13.50;99.90;;;;;;5079512;28;20369;-73
2022/10/14 13:46:44;;;;;;;;;;;13.50;99.90;;;;;;5100914;28;19935;-73
2022/10/14 13:49:16;;;;;;;;;;;13.50;99.90;;;;;;5080913;28;19924;-74
2022/10/14 13:51:48;;;;;;;;;;;13.50;99.90;;;;;;5101253;28;19924;-74
2022/10/14 13:54:15;;;;;;;;;;;13.50;99.90;;;;;;5074672;28;20259;-74
2022/10/14 13:56:40;;;;;;;;;;;13.50;99.90;;;;;;5095903;28;19928;-75
2022/10/14 13:59:18;;;;;;;;;;;13.50;99.90;;;;;;5108258;28;20330;-75
2022/10/14 14:01:44;;;;;;;;;;;13.60;99.90;;;;;;5100088;28;19959;-74
2022/10/14 14:04:15;;;;;;;;;;;13.60;99.90;;;;;;5087556;28;19928;-76
2022/10/14 14:06:45;;;;;;;;;;;13.60;99.90;;;;;;5100724;28;19928;-76
2022/10/14 14:09:17;;;;;;;;;;;13.60;99.90;;;;;;5104263;28;19982;-77
2022/10/14 14:11:44;;;;;;;;;;;13.70;99.90;;;;;;5080760;28;20361;-75
2022/10/14 14:14:23;;;;;;;;;;;13.70;99.90;;;;;;5107167;28;20010;-74
2022/10/14 14:16:52;;;;;;;;;;;13.70;99.90;;;;;;5087698;28;20005;-73
2022/10/14 14:19:18;;;;;;;;;;;13.70;99.90;;;;;;5075663;28;20029;-74
2022/10/14 14:21:44;;;;;;;;;;;13.80;99.90;;;;;;5059616;28;19925;-73
2022/10/14 14:24:14;;;;;;;;;;;13.70;99.90;;;;;;5090691;28;19935;-74
2022/10/14 14:26:40;;;;;;;;;;;13.80;99.90;;;;;;5089450;28;19950;-73
2022/10/14 14:29:16;;;;;;;;;;;13.80;99.90;;;;;;5073117;28;19924;-74
2022/10/14 14:31:42;;;;;;;;;;;13.90;99.90;;;;;;5072755;28;20145;-75
2022/10/14 14:34:14;;;;;;;;;;;13.90;99.90;;;;;;5073146;28;20039;-74
2022/10/14 14:36:40;;;;;;;;;;;13.90;99.90;;;;;;5071987;28;19980;-73
2022/10/14 14:39:16;;;;;;;;;;;13.90;99.90;;;;;;5072549;28;20021;-73
2022/10/14 14:41:48;;;;;;;;;;;13.90;99.90;;;;;;5072823;28;19928;-73
2022/10/14 14:44:14;;;;;;;;;;;14.00;99.90;;;;;;5067988;28;19928;-73
2022/10/14 14:46:41;;;;;;;;;;;14.00;99.90;;;;;;5072884;28;19925;-73
2022/10/14 14:49:10;;;;;;;;;;;14.00;99.90;;;;;;5071429;28;20306;-74
2022/10/14 14:51:37;;;;;;;;;;;14.00;99.90;;;;;;5071488;28;20035;-73
2022/10/14 14:54:03;;;;;;;;;;;14.10;99.90;;;;;;5095153;28;19951;-73
2022/10/14 14:56:46;;;;;;;;;;;14.10;99.90;;;;;;5105381;28;19924;-73
2022/10/14 14:59:30;;;;;;;;;;;14.10;99.90;;;;;;5065042;28;20341;-73
2022/10/14 15:01:57;;;;;;;;;;;14.10;99.90;;;;;;5057814;28;19924;-72
2022/10/14 15:04:24;;;;;;;;;;;14.20;99.90;;;;;;5071575;28;19941;-72
2022/10/14 15:06:58;;;;;;;;;;;14.20;99.90;;;;;;5071733;28;20004;-72
2022/10/14 15:09:32;;;;;;;;;;;14.20;99.90;;;;;;5054984;28;20333;-70
2022/10/14 15:11:59;;;;;;;;;;;14.30;99.90;;;;;;5068326;28;19932;-71
2022/10/14 15:14:31;;;;;;;;;;;14.00;99.90;;;;;;5055710;28;19929;-72
2022/10/14 15:16:57;;;;;;;;;;;14.30;99.90;;;;;;5071726;28;19935;-76
2022/10/14 15:19:30;;;;;;;;;;;14.30;99.90;;;;;;5104618;28;20377;-71
2022/10/14 15:22:08;;;;;;;;;;;14.30;99.90;;;;;;5074271;28;19928;-75
2022/10/14 15:24:33;;;;;;;;;;;14.30;99.90;;;;;;5085881;28;20018;-78
2022/10/14 15:27:19;;;;;;;;;;;14.30;99.90;;;;;;5076841;28;20465;-73
2022/10/14 15:29:44;;;;;;;;;;;14.30;99.90;;;;;;5066710;28;19928;-70